Latest Weather Observations for Windorah

IDQ60801

Issued at 10:42 am EST Thursday 21 November 2019 (issued every 10 minutes, with the page automatically refreshed every 10 minutes)

About weather observations | Map of weather stations | Latest weather observations for QLD | Other Formats
Station Details ID: 038076 Name: WINDORAH AIRPORT Lat: -25.41 Lon: 142.66 Height: 132.16 m
Data from the previous 72 hours. | See also: Recent months at Windorah
Date/Time
EST
Temp
°C
App
Temp
°C
Dew
Point
°C
Rel
Hum
%
Delta-T
°C
Wind Press
QNH
hPa
Press
MSL
hPa
Rain since
9am
mm
Dir  Spd
km/h
Gust
km/h
Spd
kts
Gust
kts
21/10:30am 39.4 33.5 5.9 13 18.7 N 26 43 14 23 1009.3 1008.5 0.0
21/10:00am 38.8 32.1 5.4 13 18.5 N 30 41 16 22 1009.5 1008.7 0.0
21/09:30am 38.5 32.1 5.2 13 18.3 N 28 41 15 22 1009.7 1008.9 0.0
21/09:00am 36.6 31.8 5.8 15 16.9 N 20 33 11 18 1010.0 1009.2 0.0
21/08:30am 36.1 30.7 6.3 16 16.5 N 24 41 13 22 1010.0 1009.2 0.0
21/08:00am 34.6 30.6 6.8 18 15.4 NNE 17 24 9 13 1009.9 1009.1 0.0
21/07:30am 32.6 28.2 6.7 20 14.1 NNE 19 24 10 13 1009.4 1008.6 0.0
21/07:00am 31.4 27.7 6.5 21 13.5 NE 15 20 8 11 1008.9 1008.1 0.0
21/06:30am 29.5 26.3 6.8 24 12.2 NE 13 19 7 10 1008.6 1007.8 0.0
21/06:00am 30.7 27.6 7.2 23 12.8 N 13 17 7 9 1008.0 1007.2 0.0
21/05:30am 30.0 26.5 7.2 24 12.4 N 15 17 8 9 1007.6 1006.8 0.0
21/05:00am 29.1 25.8 6.5 24 12.1 N 13 15 7 8 1007.4 1006.6 0.0
21/04:30am 29.2 25.8 6.0 23 12.3 NNE 13 15 7 8 1007.0 1006.2 0.0
21/04:00am 29.0 26.2 5.1 22 12.5 NNE 9 13 5 7 1006.9 1006.1 0.0
21/03:30am 29.1 26.2 4.6 21 12.7 NE 9 15 5 8 1006.8 1006.0 0.0
21/03:00am 29.4 25.9 3.4 19 13.2 NE 11 17 6 9 1006.7 1005.9 0.0
21/02:30am 29.9 26.5 3.8 19 13.4 NNE 11 15 6 8 1006.8 1006.0 0.0
21/02:00am 30.1 26.8 2.4 17 13.9 NE 9 15 5 8 1006.9 1006.1 0.0
21/01:30am 31.0 27.3 2.3 16 14.4 NNE 11 13 6 7 1007.2 1006.4 0.0
21/01:00am 31.9 28.2 2.1 15 15.1 NNE 11 13 6 7 1007.6 1006.8 0.0
21/12:30am 32.7 28.5 1.7 14 15.6 NNE 13 19 7 10 1007.8 1007.0 0.0
21/12:00am 31.6 27.0 1.8 15 15.0 NNE 15 20 8 11 1007.8 1007.0 0.0
 
Date/Time
EST
Temp
°C
App
Temp
°C
Dew
Point
°C
Rel
Hum
%
Delta-T
°C
Wind Press
QNH
hPa
Press
MSL
hPa
Rain since
9am
mm
Dir  Spd
km/h
Gust
km/h
Spd
kts
Gust
kts
20/11:30pm 32.8 28.6 1.8 14 15.6 NE 13 19 7 10 1007.7 1006.9 0.0
20/11:00pm 33.1 28.4 1.0 13 16.0 NE 15 19 8 10 1007.8 1007.0 0.0
20/10:30pm 33.6 29.2 0.3 12 16.5 NE 13 17 7 9 1007.8 1007.0 0.0
20/10:00pm 34.4 29.5 -0.3 11 17.1 NE 15 19 8 10 1007.5 1006.7 0.0
20/09:30pm 34.5 29.8 -1.5 10 17.4 NE 13 17 7 9 1007.3 1006.5 0.0
20/09:00pm 34.6 30.0 -1.4 10 17.5 NE 13 15 7 8 1007.0 1006.2 0.0
20/08:30pm 35.4 30.6 -2.3 9 18.1 ENE 13 15 7 8 1006.7 1005.9 0.0
20/08:00pm 35.9 31.4 -3.5 8 18.7 ENE 11 15 6 8 1006.4 1005.6 0.0
20/07:30pm 37.0 32.6 -2.7 8 19.1 E 11 13 6 7 1006.3 1005.5 0.0
20/07:00pm 38.9 34.0 -3.1 7 20.4 E 13 20 7 11 1006.2 1005.4 0.0
20/06:30pm 40.2 34.1 -4.2 6 21.4 E 19 30 10 16 1005.9 1005.1 0.0
20/06:00pm 40.9 35.6 -3.7 6 21.8 NE 15 26 8 14 1005.7 1004.9 0.0
20/05:30pm 41.1 35.0 -3.6 6 21.8 ENE 19 30 10 16 1005.5 1004.7 0.0
20/05:00pm 41.4 34.5 -5.8 5 22.4 E 22 35 12 19 1005.5 1004.7 0.0
20/04:30pm 41.8 33.6 -8.4 4 22.9 E 28 41 15 22 1005.5 1004.7 0.0
20/04:00pm 42.1 33.8 -5.3 5 22.8 E 30 39 16 21 1005.7 1004.9 0.0
20/03:30pm 42.4 35.2 -5.1 5 22.9 ENE 24 43 13 23 1006.0 1005.2 0.0
20/03:00pm 42.2 35.0 -5.2 5 22.8 ENE 24 37 13 20 1006.3 1005.5 0.0
20/02:30pm 42.1 33.8 -5.3 5 22.7 NE 30 46 16 25 1006.6 1005.8 0.0
20/02:00pm 41.6 33.6 -5.6 5 22.5 ENE 28 39 15 21 1007.1 1006.3 0.0
20/01:30pm 41.5 34.3 -5.7 5 22.4 NE 24 39 13 21 1007.6 1006.8 0.0
20/01:00pm 42.0 33.3 -5.4 5 22.7 ENE 32 44 17 24 1008.2 1007.4 0.0
20/12:30pm 41.5 34.3 -5.7 5 22.4 ENE 24 35 13 19 1008.7 1007.9 0.0
20/12:00pm 40.5 33.7 -1.9 7 21.2 ENE 24 35 13 19 1009.3 1008.5 0.0
20/11:30am 39.9 33.7 -4.4 6 21.2 NE 19 32 10 17 1009.8 1009.0 0.0
20/11:00am 38.9 31.3 -5.1 6 20.7 NE 26 39 14 21 1010.3 1009.5 0.0
20/10:30am 38.4 29.6 -10.7 4 21.1 NE 30 41 16 22 1010.7 1009.9 0.0
20/10:00am 37.8 28.8 -8.3 5 20.5 ENE 32 43 17 23 1011.1 1010.2 0.0
20/09:30am 37.5 27.3 -11.3 4 20.6 ENE 37 50 20 27 1011.2 1010.3 0.0
20/09:21am 37.5 28.3 -11.3 4 20.6 ENE 32 50 17 27 1011.2 1010.3 0.0
20/09:00am 36.3 28.4 -9.3 5 19.7 ENE 26 41 14 22 1011.3 1010.4 0.0
20/08:30am 34.8 27.0 -8.0 6 18.6 ENE 26 37 14 20 1011.4 1010.5 0.0
20/08:00am 33.1 25.9 -9.2 6 17.8 ENE 22 32 12 17 1011.5 1010.6 0.0
20/07:30am 30.9 24.3 -8.9 7 16.5 E 19 26 10 14 1011.4 1010.5 0.0
20/07:00am 28.4 22.3 -7.5 9 14.9 E 17 26 9 14 1011.2 1010.3 0.0
20/06:30am 26.5 20.3 -8.9 9 14.1 E 17 20 9 11 1010.9 1010.0 0.0
20/06:00am 25.1 19.3 -8.6 10 13.3 E 15 17 8 9 1010.6 1009.8 0.0
20/05:30am 24.4 18.9 -9.1 10 13.0 E 13 15 7 8 1010.2 1009.4 0.0
20/05:00am 24.1 19.0 -9.4 10 12.9 E 11 13 6 7 1010.1 1009.3 0.0
20/04:30am 24.6 19.1 -10.3 9 13.3 ENE 13 15 7 8 1009.8 1009.0 0.0
20/04:00am 25.9 20.4 -9.4 9 13.9 ESE 13 19 7 10 1009.4 1008.6 0.0
20/03:30am 25.4 19.9 -9.7 9 13.6 ESE 13 15 7 8 1009.3 1008.5 0.0
20/03:00am 25.8 20.2 -10.9 8 14.0 ESE 13 17 7 9 1009.3 1008.5 0.0
20/02:30am 26.4 20.8 -10.5 8 14.2 ESE 13 17 7 9 1009.4 1008.6 0.0
20/02:00am 26.6 21.1 -10.3 8 14.4 ESE 13 17 7 9 1009.5 1008.7 0.0
20/01:30am 26.8 21.6 -10.2 8 14.4 ESE 11 15 6 8 1009.7 1008.9 0.0
20/01:00am 27.9 22.3 -11.0 7 15.1 ESE 13 17 7 9 1009.9 1009.1 0.0
20/12:30am 28.4 22.8 -10.7 7 15.4 SE 13 17 7 9 1010.2 1009.4 0.0
20/12:00am 27.9 22.8 -9.4 8 14.9 SE 11 15 6 8 1010.5 1009.7 0.0
 
Date/Time
EST
Temp
°C
App
Temp
°C
Dew
Point
°C
Rel
Hum
%
Delta-T
°C
Wind Press
QNH
hPa
Press
MSL
hPa
Rain since
9am
mm
Dir  Spd
km/h
Gust
km/h
Spd
kts
Gust
kts
19/11:30pm 27.5 22.6 -11.3 7 14.9 SSE 9 11 5 6 1010.7 1009.9 0.0
19/11:00pm 29.4 24.3 -9.9 7 15.8 ESE 11 15 6 8 1010.9 1010.0 0.0
19/10:30pm 29.4 23.9 -9.9 7 15.8 SE 13 15 7 8 1011.0 1010.1 0.0
19/10:00pm 29.6 24.5 -9.8 7 15.9 ESE 11 13 6 7 1010.9 1010.0 0.0
19/09:30pm 30.2 25.0 -11.3 6 16.4 SE 11 13 6 7 1010.6 1009.8 0.0
19/09:00pm 31.1 26.3 -10.7 6 16.9 SE 9 11 5 6 1010.5 1009.7 0.0
19/08:30pm 32.0 26.9 -10.0 6 17.3 SE 11 13 6 7 1010.3 1009.5 0.0
19/08:00pm 33.0 28.1 -11.6 5 18.1 ESE 9 13 5 7 1010.1 1009.3 0.0
19/07:30pm 34.3 29.1 -10.7 5 18.7 SE 11 13 6 7 1009.9 1009.1 0.0
19/07:00pm 36.1 30.8 -12.2 4 19.9 SE 11 17 6 9 1009.6 1008.8 0.0
19/06:30pm 37.4 30.6 -11.4 4 20.6 SE 19 26 10 14 1009.2 1008.4 0.0
19/06:00pm 37.9 30.8 -14.6 3 21.2 SE 20 30 11 16 1008.9 1008.1 0.0
19/05:30pm 38.6 31.5 -14.1 3 21.5 SE 20 35 11 19 1008.6 1007.8 0.0
19/05:00pm 38.6 32.1 -14.1 3 21.6 SE 17 26 9 14 1008.4 1007.6 0.0
19/04:30pm 38.9 31.8 -13.9 3 21.7 SE 20 44 11 24 1008.5 1007.7 0.0
19/04:00pm 38.3 31.7 -14.3 3 21.4 SE 17 26 9 14 1008.6 1007.8 0.0
19/03:30pm 39.0 32.8 -13.8 3 21.8 SE 15 24 8 13 1008.8 1008.0 0.0
19/03:00pm 38.8 31.7 -14.0 3 21.7 SE 20 32 11 17 1009.1 1008.3 0.0
19/02:30pm 38.2 31.1 -14.4 3 21.3 SE 20 33 11 18 1009.5 1008.7 0.0
19/02:00pm 37.9 30.4 -14.6 3 21.2 SE 22 33 12 18 1010.0 1009.2 0.0
19/01:30pm 37.7 30.7 -14.7 3 21.1 ESE 19 32 10 17 1010.4 1009.6 0.0
19/01:00pm 38.3 31.2 -14.3 3 21.4 SE 20 35 11 19 1011.0 1010.1 0.0
19/12:30pm 37.4 30.6 -11.4 4 20.6 SSE 19 28 10 15 1011.6 1010.7 0.0
19/12:00pm 36.5 29.7 -12.0 4 20.1 ESE 19 30 10 16 1012.0 1011.2 0.0
19/11:30am 36.2 30.1 -12.2 4 19.9 ESE 15 24 8 13 1012.3 1011.5 0.0
19/11:00am 35.1 28.0 -12.9 4 19.4 SE 20 28 11 15 1012.7 1011.9 0.0
19/10:30am 34.7 27.6 -13.2 4 19.2 ESE 20 32 11 17 1013.1 1012.3 0.0
19/10:00am 34.2 26.7 -13.5 4 18.9 E 22 32 12 17 1013.5 1012.7 0.0
19/09:30am 33.6 25.5 -11.2 5 18.3 ESE 26 32 14 17 1013.6 1012.8 0.0
19/09:00am 32.6 25.2 -11.9 5 17.8 E 22 32 12 17 1013.5 1012.7 0.0
19/08:30am 31.3 24.6 -10.5 6 16.9 E 19 30 10 16 1013.6 1012.8 0.0
19/08:00am 29.9 22.7 -9.6 7 16.0 E 22 32 12 17 1013.6 1012.8 0.0
19/07:30am 27.4 20.2 -9.7 8 14.7 E 22 30 12 16 1013.5 1012.7 0.0
19/07:00am 25.6 19.3 -9.6 9 13.7 E 17 24 9 13 1013.4 1012.6 0.0
19/06:30am 24.0 18.6 -8.2 11 12.7 ESE 13 19 7 10 1013.1 1012.3 0.0
19/06:00am 22.3 17.3 -8.4 12 11.8 ESE 11 15 6 8 1013.0 1012.2 0.0
19/05:30am 20.7 15.8 -6.8 15 10.7 SE 11 13 6 7 1012.7 1011.9 0.0
19/05:00am 19.8 15.3 -6.7 16 10.3 SE 9 11 5 6 1012.5 1011.7 0.0
19/04:30am 20.1 16.1 -5.7 17 10.2 SE 7 9 4 5 1012.2 1011.4 0.0
19/04:00am 20.3 16.2 -6.3 16 10.5 SSE 7 9 4 5 1012.0 1011.2 0.0
19/03:30am 21.6 17.1 -7.0 14 11.2 SE 9 9 5 5 1012.0 1011.2 0.0
19/03:00am 21.2 17.1 -6.4 15 10.9 SSE 7 9 4 5 1011.9 1011.1 0.0
19/02:30am 21.4 16.9 -7.2 14 11.2 SSE 9 9 5 5 1011.9 1011.1 0.0
19/02:00am 21.9 17.3 -7.7 13 11.5 SSE 9 11 5 6 1011.9 1011.1 0.0
19/01:30am 22.5 17.9 -8.3 12 11.9 S 9 11 5 6 1012.2 1011.4 0.0
19/01:00am 22.9 18.3 -8.0 12 12.1 SSE 9 9 5 5 1012.5 1011.7 0.0
19/12:30am 23.6 19.0 -8.5 11 12.5 S 9 13 5 7 1012.8 1012.0 0.0
19/12:00am 24.7 19.5 -10.3 9 13.3 S 11 13 6 7 1013.1 1012.3 0.0
 
Date/Time
EST
Temp
°C
App
Temp
°C
Dew
Point
°C
Rel
Hum
%
Delta-T
°C
Wind Press
QNH
hPa
Press
MSL
hPa
Rain since
9am
mm
Dir  Spd
km/h
Gust
km/h
Spd
kts
Gust
kts
18/11:30pm 26.1 20.9 -10.7 8 14.1 SSE 11 13 6 7 1013.2 1012.4 0.0
18/11:00pm 27.0 21.9 -10.0 8 14.5 SSE 11 13 6 7 1013.5 1012.7 0.0
18/10:30pm 27.5 22.4 -9.7 8 14.7 SE 11 13 6 7 1013.6 1012.8 0.0
18/10:00pm 27.7 22.6 -9.5 8 14.8 SSE 11 13 6 7 1013.5 1012.7 0.0
18/09:30pm 28.1 23.4 -9.2 8 15.0 SE 9 11 5 6 1013.4 1012.6 0.0
18/09:00pm 28.6 23.8 -10.5 7 15.4 SSE 9 11 5 6 1013.3 1012.5 0.0
18/08:30pm 29.1 24.3 -10.2 7 15.7 SSE 9 11 5 6 1013.2 1012.4 0.0
18/08:00pm 29.8 24.5 -11.6 6 16.2 SSE 11 11 6 6 1012.8 1012.0 0.0
18/07:30pm 31.2 26.0 -10.6 6 16.9 SSE 11 13 6 7 1012.7 1011.9 0.0
18/07:00pm 32.8 26.4 -11.7 5 17.9 SSE 17 20 9 11 1012.5 1011.7 0.0
18/06:30pm 33.9 26.6 -11.0 5 18.5 S 22 30 12 16 1012.2 1011.4 0.0
18/06:00pm 34.8 27.4 -13.1 4 19.2 SSE 22 32 12 17 1011.9 1011.1 0.0
18/05:30pm 35.0 27.6 -13.0 4 19.3 SSE 22 32 12 17 1011.8 1010.9 0.0
18/05:00pm 35.5 28.7 -12.6 4 19.6 SSE 19 30 10 16 1011.8 1010.9 0.0
18/04:30pm 35.6 28.6 -12.6 4 19.6 SSE 20 32 11 17 1011.7 1010.8 0.0
18/04:00pm 35.9 30.2 -12.4 4 19.8 SE 13 26 7 14 1012.0 1011.2 0.0
18/03:30pm 35.8 29.0 -12.4 4 19.7 SSE 19 28 10 15 1012.2 1011.4 0.0
18/03:00pm 35.1 28.0 -12.9 4 19.4 SE 20 30 11 16 1012.5 1011.7 0.0
18/02:30pm 36.0 29.6 -12.3 4 19.8 SE 17 24 9 13 1012.9 1012.1 0.0
18/02:00pm 35.2 29.5 -12.8 4 19.4 SSE 13 33 7 18 1013.3 1012.5 0.0
18/01:30pm 33.9 27.4 -13.7 4 18.8 ESE 17 26 9 14 1013.8 1013.0 0.0
18/01:00pm 33.8 27.4 -11.0 5 18.4 ESE 17 28 9 15 1014.4 1013.6 0.0
18/12:30pm 32.9 26.9 -11.7 5 18.0 ESE 15 24 8 13 1014.8 1014.0 0.0
18/12:00pm 32.0 26.5 -10.0 6 17.3 SE 13 26 7 14 1015.2 1014.4 0.0
18/11:30am 31.4 24.7 -10.4 6 17.0 E 19 26 10 14 1015.8 1015.0 0.0
18/11:00am 30.7 24.4 -10.9 6 16.6 ESE 17 30 9 16 1016.2 1015.4 0.0

Other formats

Comma delimited format used in spreadsheet applications
http://www.bom.gov.au/fwo/IDQ60801/IDQ60801.94489.axf

JavaScript Object Notation format (JSON) in row-major order
http://www.bom.gov.au/fwo/IDQ60801/IDQ60801.94489.json

Data quality

Most of these data are generated automatically and are frequently updated. Quality checks on data are not normally performed. It is possible for incorrect values to appear. Refer to information at About Latest Weather Observations and please check the disclaimer before using these data.